Time;durP1;ratioP1;P1;durP2;ratioP2;P2;SDS_P1;SDS_P2;PMS_P1;PMS_P2;Temp;Humidity;BMP_temperature;BMP_pressure;BME280_temperature;BME280_humidity;BME280_pressure;Samples;Min_cycle;Max_cycle;Signal;HPM_P1;HPM_P2
2022/04/29 00:01:04;;;;;;;7.53;4.67;;;18.90;70.90;;;;;;5029957;28;20839;-70
2022/04/29 00:03:31;;;;;;;7.63;5.00;;;18.90;70.90;;;;;;5030345;28;21037;-70
2022/04/29 00:06:02;;;;;;;4.77;4.27;;;18.90;70.90;;;;;;5030672;28;20987;-70
2022/04/29 00:08:30;;;;;;;5.37;4.77;;;18.90;70.90;;;;;;5030472;28;21016;-70
2022/04/29 00:10:58;;;;;;;7.83;4.97;;;18.90;70.90;;;;;;5030377;28;20916;-70
2022/04/29 00:13:30;;;;;;;5.40;4.90;;;18.80;70.90;;;;;;5031732;28;20434;-71
2022/04/29 00:15:58;;;;;;;5.70;5.10;;;18.80;70.90;;;;;;5031498;28;20405;-70
2022/04/29 00:18:26;;;;;;;6.33;5.20;;;18.80;71.00;;;;;;5030707;28;20272;-70
2022/04/29 00:20:55;;;;;;;5.97;5.03;;;18.70;70.90;;;;;;5030935;28;20451;-70
2022/04/29 00:23:21;;;;;;;10.17;5.40;;;18.80;71.10;;;;;;5030362;28;20867;-70
2022/04/29 00:25:48;;;;;;;6.13;5.30;;;18.70;71.00;;;;;;5030297;28;20478;-70
2022/04/29 00:28:16;;;;;;;7.40;4.53;;;18.70;71.10;;;;;;5030228;28;20212;-70
2022/04/29 00:30:42;;;;;;;7.23;5.40;;;18.70;71.20;;;;;;5031371;28;20508;-70
2022/04/29 00:33:08;;;;;;;8.27;4.83;;;18.70;71.20;;;;;;5050156;28;20486;-70
2022/04/29 00:35:39;;;;;;;6.43;5.30;;;18.70;71.30;;;;;;5035100;28;20418;-70
2022/04/29 00:38:10;;;;;;;11.90;5.60;;;18.70;71.30;;;;;;5033165;28;20463;-70
2022/04/29 00:40:36;;;;;;;5.37;4.77;;;18.70;71.40;;;;;;5033689;28;20399;-71
2022/04/29 00:43:02;;;;;;;5.70;5.20;;;18.60;71.20;;;;;;5050317;28;20517;-71
2022/04/29 00:45:30;;;;;;;6.50;4.80;;;18.60;71.30;;;;;;5033776;28;20416;-70
2022/04/29 00:48:03;;;;;;;7.73;5.40;;;18.60;71.30;;;;;;5033905;28;20439;-70
2022/04/29 00:50:29;;;;;;;6.10;5.43;;;18.60;71.40;;;;;;5017411;28;20455;-70
2022/04/29 00:52:58;;;;;;;9.77;5.50;;;18.50;71.30;;;;;;5050295;28;20412;-70
2022/04/29 00:55:24;;;;;;;5.83;5.27;;;18.50;71.40;;;;;;5033864;28;20400;-71
2022/04/29 00:58:06;;;;;;;8.47;6.00;;;18.50;71.50;;;;;;5033606;28;20473;-71
2022/04/29 01:00:33;;;;;;;7.20;4.93;;;18.50;71.50;;;;;;5033525;28;20776;-71
2022/04/29 01:03:00;;;;;;;6.90;6.10;;;18.50;71.60;;;;;;5050121;28;20856;-70
2022/04/29 01:05:28;;;;;;;8.37;5.87;;;18.40;71.60;;;;;;5017176;28;20450;-70
2022/04/29 01:07:54;;;;;;;8.57;5.30;;;18.40;71.70;;;;;;5049886;28;20859;-70
2022/04/29 01:10:25;;;;;;;7.57;5.60;;;18.40;71.70;;;;;;5034440;28;20420;-71
2022/04/29 01:13:00;;;;;;;6.63;5.63;;;18.40;71.80;;;;;;5033513;28;20808;-70
2022/04/29 01:15:28;;;;;;;7.83;5.10;;;18.40;71.80;;;;;;5034560;28;20400;-71
2022/04/29 01:17:58;;;;;;;9.80;6.13;;;18.40;71.90;;;;;;5034394;28;20439;-71
2022/04/29 01:20:27;;;;;;;6.33;5.57;;;18.40;71.90;;;;;;5016768;28;20470;-70
2022/04/29 01:22:53;;;;;;;6.63;5.67;;;18.30;71.90;;;;;;5032483;28;20936;-70
2022/04/29 01:25:22;;;;;;;5.73;4.90;;;18.30;71.90;;;;;;5033353;28;20464;-70
2022/04/29 01:27:58;;;;;;;7.67;5.77;;;18.30;72.00;;;;;;5016804;28;20442;-70
2022/04/29 01:30:29;;;;;;;7.77;6.10;;;18.30;72.00;;;;;;5032993;28;20457;-70
2022/04/29 01:32:57;;;;;;;13.73;6.40;;;18.30;72.00;;;;;;5049635;28;20400;-72
2022/04/29 01:35:23;;;;;;;8.03;5.30;;;18.30;72.10;;;;;;5016961;28;20986;-70
2022/04/29 01:37:51;;;;;;;9.30;5.80;;;18.20;72.00;;;;;;5017164;28;20684;-70
2022/04/29 01:40:21;;;;;;;10.70;5.50;;;18.20;72.10;;;;;;5034328;28;20443;-70
2022/04/29 01:42:50;;;;;;;6.37;5.77;;;18.20;72.20;;;;;;5016529;28;20502;-70
2022/04/29 01:45:16;;;;;;;6.30;5.37;;;18.20;72.20;;;;;;5033008;28;20478;-71
2022/04/29 01:48:08;;;;;;;6.80;6.00;;;18.20;72.30;;;;;;5010367;28;20435;-70
2022/04/29 01:50:49;;;;;;;7.73;6.00;;;18.20;72.40;;;;;;5049605;28;20435;-70
2022/04/29 01:53:15;;;;;;;6.10;5.50;;;18.20;72.60;;;;;;5033020;28;20410;-70
2022/04/29 01:55:44;;;;;;;7.50;5.90;;;18.10;72.50;;;;;;5032969;28;20421;-71
2022/04/29 01:58:10;;;;;;;7.77;6.30;;;18.10;72.60;;;;;;5032753;28;20438;-70
2022/04/29 02:00:39;;;;;;;7.93;5.60;;;18.10;72.60;;;;;;5049347;28;20787;-70
2022/04/29 02:03:06;;;;;;;5.70;5.20;;;18.10;72.70;;;;;;5016274;28;20457;-70
2022/04/29 02:05:32;;;;;;;6.27;5.07;;;18.10;72.70;;;;;;5049373;28;20395;-71
2022/04/29 02:08:00;;;;;;;7.97;5.60;;;18.10;72.90;;;;;;5032041;28;20439;-71
2022/04/29 02:10:32;;;;;;;8.33;6.20;;;18.00;72.90;;;;;;5048746;28;20434;-70
2022/04/29 02:12:58;;;;;;;6.00;5.37;;;18.00;72.90;;;;;;5049101;28;20498;-71
2022/04/29 02:15:32;;;;;;;9.80;6.30;;;18.00;73.00;;;;;;5033786;28;20892;-70
2022/04/29 02:18:04;;;;;;;8.00;6.10;;;18.00;73.00;;;;;;5033696;28;20502;-70
2022/04/29 02:20:30;;;;;;;8.93;6.10;;;18.00;73.10;;;;;;5032312;28;20410;-71
2022/04/29 02:22:57;;;;;;;6.80;5.90;;;17.90;73.00;;;;;;5015827;28;20461;-71
2022/04/29 02:25:28;;;;;;;8.00;5.47;;;17.90;73.10;;;;;;5049017;28;20407;-70
2022/04/29 02:27:53;;;;;;;10.60;6.63;;;17.90;73.10;;;;;;5032286;28;20435;-70
2022/04/29 02:30:22;;;;;;;6.33;5.70;;;17.90;73.20;;;;;;5048810;28;20399;-70
2022/04/29 02:32:49;;;;;;;6.63;5.27;;;17.90;73.30;;;;;;5033444;28;20413;-70
2022/04/29 02:35:17;;;;;;;6.93;5.53;;;17.80;73.20;;;;;;5032220;28;20924;-70
2022/04/29 02:37:43;;;;;;;5.83;5.20;;;17.80;73.30;;;;;;5031760;28;20940;-70
2022/04/29 02:40:15;;;;;;;8.60;5.33;;;17.80;73.40;;;;;;5032174;28;20411;-70
2022/04/29 02:42:44;;;;;;;8.30;5.90;;;17.80;73.40;;;;;;5031824;28;20478;-70
2022/04/29 02:45:13;;;;;;;7.27;5.60;;;17.80;73.50;;;;;;5047909;28;20410;-70
2022/04/29 02:47:47;;;;;;;6.97;5.50;;;17.80;73.60;;;;;;5015333;28;20450;-70
2022/04/29 02:50:16;;;;;;;7.63;5.70;;;17.80;73.70;;;;;;5015642;28;20475;-70
2022/04/29 02:52:55;;;;;;;7.60;5.80;;;17.70;73.60;;;;;;5032264;28;20536;-70
2022/04/29 02:55:24;;;;;;;7.00;6.20;;;17.70;73.70;;;;;;5047777;28;20399;-70
2022/04/29 02:58:05;;;;;;;7.90;5.63;;;17.70;73.70;;;;;;5031484;28;20492;-70
2022/04/29 03:00:32;;;;;;;6.90;5.97;;;17.70;73.80;;;;;;5047961;28;20419;-70
2022/04/29 03:02:57;;;;;;;10.10;6.40;;;17.70;73.90;;;;;;5015156;28;20893;-70
2022/04/29 03:05:24;;;;;;;6.43;5.57;;;17.70;73.90;;;;;;5031686;28;20462;-71
2022/04/29 03:07:50;;;;;;;9.90;6.33;;;17.60;73.80;;;;;;5031407;28;20474;-70
2022/04/29 03:10:17;;;;;;;8.60;6.33;;;17.70;74.10;;;;;;5047939;28;20411;-70
2022/04/29 03:12:43;;;;;;;7.33;6.07;;;17.60;73.90;;;;;;5014926;28;20449;-70
2022/04/29 03:15:17;;;;;;;6.77;6.03;;;17.60;74.10;;;;;;5031444;28;20472;-70
2022/04/29 03:20:43;;;;;;;6.90;5.60;;;17.60;74.10;;;;;;5027609;28;20455;-70
2022/04/29 03:23:10;;;;;;;7.07;5.70;;;17.60;74.20;;;;;;5011309;28;20499;-70
2022/04/29 03:25:41;;;;;;;9.43;6.40;;;17.50;74.20;;;;;;4995809;28;20423;-70
2022/04/29 03:28:09;;;;;;;8.93;5.73;;;17.50;74.20;;;;;;5012620;28;20974;-70
2022/04/29 03:30:36;;;;;;;11.00;5.70;;;17.50;74.30;;;;;;4995133;28;20511;-70
2022/04/29 03:33:04;;;;;;;6.23;5.40;;;17.50;74.40;;;;;;4995245;28;20459;-71
2022/04/29 03:35:44;;;;;;;5.90;5.23;;;17.50;74.40;;;;;;5012515;28;20440;-71
2022/04/29 03:38:42;;;;;;;7.60;6.07;;;17.50;74.50;;;;;;5005036;28;20484;-70
2022/04/29 03:41:12;;;;;;;8.20;6.10;;;17.50;75.30;;;;;;5011607;28;20948;-70
2022/04/29 03:43:40;;;;;;;9.00;5.93;;;17.40;74.50;;;;;;5011359;28;20448;-71
2022/04/29 03:46:11;;;;;;;7.87;5.93;;;17.40;74.50;;;;;;5030532;28;20763;-71
2022/04/29 03:51:49;;;;;;;7.73;6.00;;;17.40;74.60;;;;;;5047581;28;20544;-70
2022/04/29 03:54:15;;;;;;;8.63;6.07;;;17.30;74.50;;;;;;5014685;28;20806;-70
2022/04/29 03:56:48;;;;;;;6.27;5.50;;;17.40;74.70;;;;;;5030721;28;20415;-71
2022/04/29 03:59:19;;;;;;;7.57;6.90;;;17.30;74.60;;;;;;5015102;28;21193;-70
2022/04/29 04:01:51;;;;;;;8.00;5.97;;;17.30;74.70;;;;;;5030840;28;20931;-70
2022/04/29 04:04:17;;;;;;;6.63;5.80;;;17.30;74.70;;;;;;5030821;28;20838;-70
2022/04/29 04:06:51;;;;;;;6.90;5.43;;;17.30;74.70;;;;;;5033367;28;20432;-70
2022/04/29 04:09:39;;;;;;;7.47;5.90;;;17.30;74.70;;;;;;5035472;28;20458;-70
2022/04/29 04:12:06;;;;;;;10.13;5.67;;;17.30;74.80;;;;;;5018480;28;20423;-70
2022/04/29 04:15:04;;;;;;;8.30;5.50;;;17.30;74.80;;;;;;5018403;28;20556;-70
2022/04/29 04:17:40;;;;;;;9.10;5.37;;;17.20;74.70;;;;;;5051138;28;20440;-70
2022/04/29 04:20:11;;;;;;;6.73;5.40;;;17.20;74.80;;;;;;5018232;28;20740;-70
2022/04/29 04:22:50;;;;;;;7.00;5.30;;;17.20;74.80;;;;;;5034649;28;20947;-70
2022/04/29 04:25:18;;;;;;;8.20;4.43;;;17.20;74.90;;;;;;5034711;28;20530;-70
2022/04/29 04:27:44;;;;;;;7.63;4.97;;;17.20;75.00;;;;;;5001642;28;20454;-71
2022/04/29 04:30:10;;;;;;;6.10;5.40;;;17.20;74.90;;;;;;5034289;28;20399;-71
2022/04/29 04:32:41;;;;;;;8.43;5.23;;;17.10;74.90;;;;;;5018597;28;20553;-70
2022/04/29 04:35:08;;;;;;;6.80;5.10;;;17.10;74.90;;;;;;5017971;28;20405;-70
2022/04/29 04:37:34;;;;;;;6.50;4.90;;;17.10;75.00;;;;;;5017857;28;20493;-70
2022/04/29 04:40:06;;;;;;;8.40;5.77;;;17.10;75.00;;;;;;5034214;28;20461;-71
2022/04/29 04:42:53;;;;;;;9.10;5.00;;;17.10;75.00;;;;;;5047702;28;21033;-70
2022/04/29 04:45:40;;;;;;;6.20;5.23;;;17.10;75.10;;;;;;5031084;28;20425;-70
2022/04/29 04:48:41;;;;;;;6.37;4.97;;;17.00;75.00;;;;;;5013903;28;20472;-70
2022/04/29 04:51:18;;;;;;;11.57;5.87;;;17.00;75.00;;;;;;5033866;28;20458;-70
2022/04/29 04:53:57;;;;;;;9.60;5.00;;;17.00;75.10;;;;;;5034145;28;20440;-70
2022/04/29 04:56:26;;;;;;;6.20;4.37;;;17.00;75.20;;;;;;5017875;28;20434;-70
2022/04/29 04:58:56;;;;;;;5.33;4.83;;;17.00;75.20;;;;;;5017541;28;20437;-71
2022/04/29 05:01:23;;;;;;;6.50;5.83;;;16.90;75.20;;;;;;5017407;28;20762;-71
2022/04/29 05:04:10;;;;;;;5.73;5.10;;;17.00;75.30;;;;;;5033790;28;21010;-70
2022/04/29 05:06:59;;;;;;;8.23;4.90;;;16.90;75.20;;;;;;5020533;28;20458;-70
2022/04/29 05:09:26;;;;;;;5.67;4.50;;;16.90;75.30;;;;;;5033028;28;20484;-71
2022/04/29 05:11:52;;;;;;;6.17;4.80;;;16.90;75.30;;;;;;5033715;28;20438;-70
2022/04/29 05:14:39;;;;;;;6.13;3.67;;;16.90;75.30;;;;;;5035001;28;20413;-70
2022/04/29 05:17:05;;;;;;;9.23;5.03;;;16.90;75.40;;;;;;5016467;28;20470;-70
2022/04/29 05:19:52;;;;;;;5.57;4.70;;;16.80;75.30;;;;;;5047758;28;20407;-71
2022/04/29 05:22:22;;;;;;;7.83;5.50;;;16.80;75.40;;;;;;5032851;28;20948;-70
2022/04/29 05:24:50;;;;;;;5.00;3.97;;;16.80;75.50;;;;;;5017241;28;20441;-70
2022/04/29 05:27:39;;;;;;;5.27;4.50;;;16.80;75.50;;;;;;5034583;28;20995;-70
2022/04/29 05:30:44;;;;;;;8.53;4.43;;;16.80;75.50;;;;;;5012525;28;20400;-70
2022/04/29 05:33:24;;;;;;;6.87;5.30;;;16.80;75.80;;;;;;5012513;28;20458;-70
2022/04/29 05:36:14;;;;;;;6.80;4.50;;;16.80;75.60;;;;;;5028494;28;20506;-70
2022/04/29 05:44:38;;;;;;;5.80;3.90;;;16.70;75.70;;;;;;5012795;28;20479;-70
2022/04/29 05:47:04;;;;;;;5.03;4.13;;;16.70;75.80;;;;;;5014831;28;21177;-68
2022/04/29 05:49:33;;;;;;;5.40;4.90;;;16.70;75.90;;;;;;5015143;28;20407;-67
2022/04/29 05:52:03;;;;;;;7.20;4.60;;;16.70;76.00;;;;;;5013589;28;20963;-68
2022/04/29 05:54:32;;;;;;;8.13;4.97;;;16.70;76.00;;;;;;4997515;28;20447;-68
2022/04/29 05:57:01;;;;;;;7.40;4.60;;;16.70;76.00;;;;;;4997431;28;20430;-68
2022/04/29 05:59:29;;;;;;;5.83;4.10;;;16.60;75.90;;;;;;4997161;28;20434;-67
2022/04/29 06:02:06;;;;;;;8.23;4.87;;;16.60;76.00;;;;;;4996780;28;20873;-68
2022/04/29 06:04:55;;;;;;;5.63;4.87;;;16.70;76.90;;;;;;5014387;28;20562;-68
2022/04/29 06:07:23;;;;;;;6.53;4.80;;;16.60;76.10;;;;;;5014463;28;20489;-68
2022/04/29 06:09:51;;;;;;;5.87;4.50;;;16.60;76.20;;;;;;4996904;28;20411;-68
2022/04/29 06:12:20;;;;;;;7.40;5.37;;;16.60;76.20;;;;;;5029656;28;20390;-67
2022/04/29 06:14:48;;;;;;;6.90;5.17;;;16.60;76.20;;;;;;5013335;28;20788;-67
2022/04/29 06:17:52;;;;;;;5.40;4.90;;;16.60;76.30;;;;;;4964940;28;20542;-67
2022/04/29 06:21:01;;;;;;;6.10;4.67;;;16.60;76.40;;;;;;4915976;29;20487;-68
2022/04/29 06:23:42;;;;;;;6.77;4.17;;;16.50;76.30;;;;;;4967071;28;20474;-68
2022/04/29 06:26:12;;;;;;;5.00;4.50;;;16.50;76.40;;;;;;5014267;28;20462;-68
2022/04/29 06:28:41;;;;;;;5.90;4.83;;;16.50;76.50;;;;;;5028770;28;20461;-68
2022/04/29 06:31:13;;;;;;;7.30;4.60;;;16.50;76.50;;;;;;5029172;28;20400;-68
2022/04/29 06:34:00;;;;;;;5.53;4.60;;;16.50;76.50;;;;;;5029504;28;20450;-68
2022/04/29 06:36:28;;;;;;;6.33;4.30;;;16.50;76.60;;;;;;5014162;28;20434;-68
2022/04/29 06:38:57;;;;;;;9.50;5.50;;;16.50;76.70;;;;;;5032024;28;20477;-68
2022/04/29 06:41:42;;;;;;;7.40;4.60;;;16.50;76.70;;;;;;5033693;28;20548;-68
2022/04/29 06:44:14;;;;;;;10.93;4.73;;;16.50;76.70;;;;;;5048104;28;20451;-67
2022/04/29 06:46:40;;;;;;;6.67;4.40;;;16.50;76.80;;;;;;5033529;28;20404;-67
2022/04/29 06:49:18;;;;;;;6.63;4.60;;;16.40;76.70;;;;;;5047719;28;20489;-67
2022/04/29 06:52:03;;;;;;;7.53;4.40;;;16.50;76.90;;;;;;5033529;28;20401;-67
2022/04/29 06:54:38;;;;;;;5.03;4.53;;;16.40;76.80;;;;;;5032321;28;20749;-68
2022/04/29 06:57:11;;;;;;;7.73;4.63;;;16.40;76.90;;;;;;5032255;28;20851;-68
2022/04/29 06:59:37;;;;;;;5.70;4.10;;;16.40;76.90;;;;;;5032310;28;20484;-68
2022/04/29 07:02:07;;;;;;;5.57;4.53;;;16.40;77.00;;;;;;5032071;28;20411;-67
2022/04/29 07:04:34;;;;;;;7.50;5.33;;;16.40;77.10;;;;;;5032052;28;20444;-68
2022/04/29 07:07:03;;;;;;;4.90;4.20;;;16.40;77.10;;;;;;5015919;28;20449;-68
2022/04/29 07:09:29;;;;;;;7.50;5.00;;;16.40;77.20;;;;;;5028566;28;20440;-68
2022/04/29 07:12:34;;;;;;;9.30;5.60;;;16.40;77.20;;;;;;5023633;28;20419;-67
2022/04/29 07:15:00;;;;;;;6.40;5.40;;;16.40;77.30;;;;;;5013329;28;20444;-68
2022/04/29 07:17:29;;;;;;;6.30;5.30;;;16.40;77.30;;;;;;5028480;28;20496;-68
2022/04/29 07:20:03;;;;;;;10.63;5.50;;;16.40;77.30;;;;;;5012368;28;20403;-68
2022/04/29 07:22:30;;;;;;;7.67;4.33;;;16.40;77.30;;;;;;5012162;28;20424;-68
2022/04/29 07:25:03;;;;;;;5.60;4.00;;;16.40;77.20;;;;;;5012060;28;20407;-67
2022/04/29 07:27:30;;;;;;;7.20;5.10;;;16.40;77.20;;;;;;5028864;28;20572;-68
2022/04/29 07:30:04;;;;;;;7.23;5.60;;;16.40;77.20;;;;;;5028562;28;20391;-68
2022/04/29 07:32:38;;;;;;;6.20;4.40;;;16.40;77.30;;;;;;5013142;28;20443;-68
2022/04/29 07:44:01;;;;;;;7.83;5.70;;;16.40;77.60;;;;;;5011657;28;20567;-67
2022/04/29 07:46:30;;;;;;;8.07;5.50;;;16.40;77.60;;;;;;5028128;28;20471;-68
2022/04/29 07:49:16;;;;;;;9.63;5.40;;;16.40;77.70;;;;;;5012847;28;20450;-68
2022/04/29 07:51:47;;;;;;;5.43;4.70;;;16.40;77.60;;;;;;5027891;28;20462;-67
2022/04/29 07:54:15;;;;;;;6.60;5.23;;;16.40;77.70;;;;;;5011894;28;20445;-67
2022/04/29 07:56:42;;;;;;;6.57;4.97;;;16.40;77.70;;;;;;4995498;28;20474;-68
2022/04/29 07:59:13;;;;;;;5.93;4.93;;;16.40;78.60;;;;;;5028211;28;20964;-68
2022/04/29 08:01:43;;;;;;;8.83;4.70;;;16.40;77.90;;;;;;5027878;28;20422;-68
2022/04/29 08:04:12;;;;;;;8.17;5.97;;;16.40;77.90;;;;;;5011578;28;20468;-68
2022/04/29 08:06:39;;;;;;;6.10;5.13;;;16.40;78.00;;;;;;5012496;28;20402;-68
2022/04/29 08:09:06;;;;;;;7.43;5.00;;;16.40;78.00;;;;;;5014837;28;20450;-68
2022/04/29 08:11:32;;;;;;;10.07;5.47;;;16.40;78.10;;;;;;5015168;28;20415;-68
2022/04/29 08:14:17;;;;;;;9.67;6.40;;;16.40;78.10;;;;;;5032403;28;20436;-68
2022/04/29 08:17:06;;;;;;;7.67;4.80;;;16.40;78.10;;;;;;5026651;28;20456;-67
2022/04/29 08:19:38;;;;;;;7.10;4.87;;;16.40;78.20;;;;;;5031230;28;20953;-68
2022/04/29 08:22:19;;;;;;;6.17;5.50;;;16.40;78.30;;;;;;5011343;28;20443;-68
2022/04/29 08:24:45;;;;;;;5.90;5.07;;;16.40;78.40;;;;;;4995111;28;20959;-68
2022/04/29 08:27:13;;;;;;;8.37;5.00;;;16.40;78.50;;;;;;5011603;28;20415;-67
2022/04/29 08:29:39;;;;;;;6.47;4.50;;;16.40;78.50;;;;;;5011309;28;20441;-67
2022/04/29 08:32:06;;;;;;;6.47;4.97;;;16.40;78.50;;;;;;5011533;28;20398;-68
2022/04/29 08:34:36;;;;;;;7.30;5.47;;;16.40;78.60;;;;;;5011373;28;20405;-68
2022/04/29 08:37:05;;;;;;;8.80;5.70;;;16.40;78.70;;;;;;5027622;28;20993;-68
2022/04/29 08:39:37;;;;;;;7.27;4.90;;;16.40;78.80;;;;;;4995975;28;20945;-68
2022/04/29 08:42:06;;;;;;;8.13;5.57;;;16.40;78.90;;;;;;5030612;28;20443;-68
2022/04/29 08:44:34;;;;;;;5.37;4.87;;;16.40;79.00;;;;;;5014227;28;20474;-68
2022/04/29 08:47:21;;;;;;;5.83;4.67;;;16.40;79.10;;;;;;5010935;28;20448;-68
2022/04/29 08:50:19;;;;;;;7.13;4.37;;;16.40;79.10;;;;;;5031093;28;20497;-68
2022/04/29 08:52:53;;;;;;;7.73;5.30;;;16.40;79.10;;;;;;5033201;28;20414;-67
2022/04/29 09:01:03;;;;;;;7.43;4.97;;;16.40;79.20;;;;;;5034344;28;20515;-68
2022/04/29 09:03:32;;;;;;;9.83;5.57;;;16.40;79.30;;;;;;5034321;28;20452;-68
2022/04/29 09:06:06;;;;;;;7.40;4.90;;;16.40;79.20;;;;;;5034417;28;20422;-68
2022/04/29 09:08:46;;;;;;;7.70;4.77;;;16.40;79.30;;;;;;5017640;28;20453;-68
2022/04/29 09:11:29;;;;;;;8.77;5.90;;;16.40;79.30;;;;;;5035172;28;20435;-67
2022/04/29 09:13:55;;;;;;;9.53;4.80;;;16.50;79.40;;;;;;5034345;28;20409;-68
2022/04/29 09:16:37;;;;;;;8.07;4.57;;;16.40;79.30;;;;;;5035290;28;20439;-68
2022/04/29 09:19:05;;;;;;;6.43;4.97;;;16.50;79.50;;;;;;5035302;28;20435;-67
2022/04/29 09:21:33;;;;;;;8.70;5.37;;;16.50;79.50;;;;;;5033974;28;20905;-67
2022/04/29 09:24:06;;;;;;;6.73;5.40;;;16.50;79.50;;;;;;5030295;28;20457;-72
2022/04/29 09:27:12;;;;;;;9.40;5.40;;;16.50;79.40;;;;;;5032604;28;20492;-71
2022/04/29 09:29:58;;;;;;;6.90;5.60;;;16.50;79.30;;;;;;5033261;28;20420;-71
2022/04/29 09:32:24;;;;;;;7.70;6.00;;;16.50;79.30;;;;;;5015528;28;20414;-71
2022/04/29 09:35:09;;;;;;;6.33;4.50;;;16.50;79.30;;;;;;5014685;28;20435;-74
2022/04/29 09:39:26;;;;;;;6.97;4.97;;;16.50;79.30;;;;;;4997756;28;20470;-69
2022/04/29 09:40:38;;;;;;;8.20;5.20;;;16.50;79.30;;;;;;5013945;28;20786;-72
2022/04/29 09:43:04;;;;;;;6.87;5.40;;;16.50;79.20;;;;;;5048323;28;20456;-72
2022/04/29 09:45:31;;;;;;;8.40;5.20;;;16.50;79.20;;;;;;4997836;28;20421;-74
2022/04/29 09:48:02;;;;;;;6.60;5.00;;;16.60;79.40;;;;;;5031411;28;20451;-73
2022/04/29 09:50:49;;;;;;;8.33;5.73;;;16.60;79.40;;;;;;5032730;28;20436;-73
2022/04/29 09:53:23;;;;;;;6.90;5.00;;;16.60;79.40;;;;;;5030825;28;20512;-74
2022/04/29 09:56:09;;;;;;;12.20;6.50;;;16.60;79.30;;;;;;5032197;28;20756;-74
2022/04/29 09:58:35;;;;;;;9.40;5.20;;;16.60;79.30;;;;;;5031347;28;20565;-72
2022/04/29 10:01:04;;;;;;;8.50;6.30;;;16.60;79.30;;;;;;5029033;28;20440;-72
2022/04/29 10:03:35;;;;;;;13.03;5.93;;;16.60;79.30;;;;;;5012835;28;20532;-72
2022/04/29 10:06:02;;;;;;;10.53;6.17;;;16.60;79.30;;;;;;5027219;28;20489;-76
2022/04/29 10:08:30;;;;;;;9.30;6.07;;;16.60;79.20;;;;;;5047745;28;20463;-76
2022/04/29 10:10:58;;;;;;;8.20;5.37;;;16.70;79.30;;;;;;5032155;28;20840;-74
2022/04/29 10:13:27;;;;;;;9.30;6.27;;;16.70;79.20;;;;;;5031694;28;20444;-73
2022/04/29 10:16:31;;;;;;;14.90;6.13;;;16.70;79.20;;;;;;5019381;28;20467;-72
2022/04/29 10:22:31;;;;;;;7.77;6.10;;;16.70;79.20;;;;;;5028751;28;20785;-72
2022/04/29 10:25:06;;;;;;;11.53;5.80;;;16.70;79.10;;;;;;5026696;28;20465;-72
2022/04/29 10:27:33;;;;;;;9.00;6.00;;;16.70;79.20;;;;;;5031745;28;20448;-73
2022/04/29 10:30:02;;;;;;;6.77;5.70;;;16.70;79.20;;;;;;5047326;28;20437;-73
2022/04/29 10:32:28;;;;;;;9.33;6.07;;;16.80;79.30;;;;;;5048038;28;20398;-73
2022/04/29 10:34:56;;;;;;;8.63;5.77;;;16.80;79.20;;;;;;5031667;28;20446;-73
2022/04/29 10:37:32;;;;;;;7.00;5.23;;;16.80;79.20;;;;;;5047975;28;20461;-73
2022/04/29 10:40:11;;;;;;;7.00;5.70;;;16.80;79.20;;;;;;5030511;28;20470;-72
2022/04/29 10:43:13;;;;;;;6.17;5.27;;;16.80;79.20;;;;;;5033677;28;20534;-72
2022/04/29 10:46:03;;;;;;;6.37;5.17;;;16.90;80.10;;;;;;5011465;28;20472;-71
2022/04/29 10:48:37;;;;;;;11.53;5.50;;;16.80;79.10;;;;;;5011854;28;20920;-71
2022/04/29 10:51:25;;;;;;;8.60;5.60;;;16.80;79.10;;;;;;5032389;28;20447;-72
2022/04/29 10:54:12;;;;;;;6.10;5.13;;;16.90;79.20;;;;;;5045525;28;20838;-71
2022/04/29 10:57:01;;;;;;;10.30;5.07;;;16.90;79.20;;;;;;5045660;28;20831;-72
2022/04/29 10:59:27;;;;;;;10.83;4.53;;;16.90;79.20;;;;;;5031014;28;20996;-71
2022/04/29 11:02:13;;;;;;;8.40;5.53;;;16.90;79.10;;;;;;5043627;28;20438;-71
2022/04/29 11:04:43;;;;;;;8.77;5.40;;;16.90;79.00;;;;;;5028459;28;20513;-72
2022/04/29 11:07:35;;;;;;;7.67;5.23;;;17.00;79.00;;;;;;5046537;28;20485;-71
2022/04/29 11:10:03;;;;;;;5.60;5.03;;;17.00;79.00;;;;;;5030954;28;20401;-71
2022/04/29 11:12:36;;;;;;;8.60;6.50;;;17.00;79.00;;;;;;5030386;28;20463;-72
2022/04/29 11:15:44;;;;;;;5.93;5.07;;;17.00;79.10;;;;;;5031652;28;20432;-71
2022/04/29 11:18:27;;;;;;;7.33;6.03;;;17.00;79.00;;;;;;5041659;28;20466;-71
2022/04/29 11:20:56;;;;;;;6.70;4.40;;;17.00;79.70;;;;;;5027558;28;20560;-71
2022/04/29 11:26:21;;;;;;;7.80;4.93;;;17.10;79.30;;;;;;5029998;28;20444;-71
2022/04/29 11:28:54;;;;;;;7.90;5.60;;;17.10;78.90;;;;;;5027040;28;20468;-71
2022/04/29 11:31:39;;;;;;;8.73;5.73;;;17.10;78.90;;;;;;5011271;28;20480;-71
2022/04/29 11:34:11;;;;;;;9.00;5.53;;;17.10;79.00;;;;;;5021849;28;20487;-71
2022/04/29 11:36:38;;;;;;;11.03;4.97;;;17.10;78.90;;;;;;5030036;28;20428;-72
2022/04/29 11:39:15;;;;;;;5.43;4.20;;;17.20;79.00;;;;;;5029878;28;20474;-71
2022/04/29 11:41:58;;;;;;;7.37;5.03;;;17.20;79.00;;;;;;5030299;28;20444;-71
2022/04/29 11:44:40;;;;;;;8.60;5.57;;;17.20;78.80;;;;;;5029448;28;20466;-72
2022/04/29 11:47:08;;;;;;;8.07;5.70;;;17.20;78.80;;;;;;5047127;28;20401;-72
2022/04/29 11:49:43;;;;;;;6.03;4.60;;;17.20;78.70;;;;;;5028147;28;20428;-71
2022/04/29 11:52:25;;;;;;;9.90;5.90;;;17.30;79.00;;;;;;5019534;28;20442;-71
2022/04/29 11:55:01;;;;;;;7.73;4.83;;;17.30;78.90;;;;;;5031702;28;20418;-71
2022/04/29 11:57:30;;;;;;;7.53;5.23;;;17.30;78.80;;;;;;5029828;28;20488;-71
2022/04/29 12:00:03;;;;;;;7.37;5.30;;;17.30;78.80;;;;;;5031407;28;20623;-71
2022/04/29 12:02:46;;;;;;;7.23;4.80;;;17.30;78.80;;;;;;5028779;28;20538;-71
2022/04/29 12:05:13;;;;;;;9.13;5.37;;;17.40;78.90;;;;;;5024972;28;20433;-72
2022/04/29 12:07:47;;;;;;;7.07;4.73;;;17.40;78.90;;;;;;5013363;28;20985;-72
2022/04/29 12:10:31;;;;;;;6.47;5.23;;;17.40;78.80;;;;;;5015176;28;20591;-71
2022/04/29 12:13:00;;;;;;;12.20;5.47;;;17.40;78.70;;;;;;5025219;28;20960;-71
2022/04/29 12:15:32;;;;;;;10.53;5.23;;;17.40;78.70;;;;;;5046446;28;20404;-71
2022/04/29 12:18:06;;;;;;;8.13;4.67;;;17.50;78.80;;;;;;5013339;28;20457;-71
2022/04/29 12:20:32;;;;;;;11.10;5.93;;;17.50;78.70;;;;;;5030110;28;20415;-72
2022/04/29 12:23:19;;;;;;;8.17;5.10;;;17.50;78.60;;;;;;5029487;28;20469;-71
2022/04/29 12:25:48;;;;;;;7.53;4.73;;;17.50;78.50;;;;;;4999491;28;20445;-71
2022/04/29 12:28:32;;;;;;;7.53;5.23;;;17.50;78.50;;;;;;5014842;28;20472;-72
2022/04/29 12:37:12;;;;;;;5.00;4.30;;;17.60;78.40;;;;;;5023963;28;20963;-72
2022/04/29 12:39:49;;;;;;;6.33;4.17;;;17.60;78.30;;;;;;5033677;28;20825;-72
2022/04/29 12:42:17;;;;;;;8.47;4.60;;;17.60;78.20;;;;;;5016214;28;20601;-71
2022/04/29 12:47:40;;;;;;;5.47;4.20;;;17.70;78.20;;;;;;5001445;28;20478;-71
2022/04/29 12:50:25;;;;;;;6.10;3.80;;;17.70;78.20;;;;;;5013781;28;20414;-71
2022/04/29 12:53:12;;;;;;;4.90;3.87;;;17.70;78.10;;;;;;5031919;28;20955;-71
2022/04/29 12:55:47;;;;;;;7.60;4.20;;;17.70;78.00;;;;;;5050102;28;20487;-71
2022/04/29 12:58:19;;;;;;;8.73;4.37;;;17.70;78.00;;;;;;5032337;28;20458;-71
2022/04/29 13:00:48;;;;;;;6.57;4.70;;;17.80;78.00;;;;;;5012481;28;20450;-71
2022/04/29 13:03:25;;;;;;;6.27;4.50;;;17.70;77.90;;;;;;5031668;28;20461;-71
2022/04/29 13:05:59;;;;;;;6.70;3.60;;;17.70;77.70;;;;;;5049461;28;20452;-71
2022/04/29 13:08:26;;;;;;;5.37;3.50;;;17.80;77.70;;;;;;5032733;28;20469;-71
2022/04/29 13:10:54;;;;;;;4.80;3.73;;;17.80;77.60;;;;;;5033173;28;20414;-72
2022/04/29 13:13:26;;;;;;;9.10;4.03;;;17.80;77.60;;;;;;5028976;28;20446;-72
2022/04/29 13:15:54;;;;;;;7.70;3.60;;;17.80;77.60;;;;;;5049271;28;20488;-72
2022/04/29 13:18:24;;;;;;;5.90;4.13;;;17.80;77.40;;;;;;5033159;28;20451;-72
2022/04/29 13:20:52;;;;;;;7.43;4.43;;;17.80;77.30;;;;;;5044778;28;20523;-72
2022/04/29 13:23:21;;;;;;;6.97;3.70;;;17.80;77.30;;;;;;5032839;28;20454;-72
2022/04/29 13:25:51;;;;;;;5.20;3.53;;;17.80;77.20;;;;;;5049137;28;20596;-72
2022/04/29 13:28:22;;;;;;;6.63;3.60;;;17.80;77.20;;;;;;5034097;28;20438;-72
2022/04/29 13:30:50;;;;;;;8.00;3.30;;;17.90;77.30;;;;;;5048965;28;20924;-71
2022/04/29 13:33:18;;;;;;;5.17;3.80;;;17.90;77.30;;;;;;5033033;28;20412;-72
2022/04/29 13:35:45;;;;;;;4.90;3.70;;;17.90;77.20;;;;;;5014301;28;20455;-72
2022/04/29 13:38:11;;;;;;;6.53;4.00;;;17.90;76.90;;;;;;5027237;28;20919;-72
2022/04/29 13:40:39;;;;;;;4.37;3.70;;;17.90;76.90;;;;;;5026585;28;20473;-72
2022/04/29 13:43:05;;;;;;;6.07;3.97;;;17.90;76.80;;;;;;5032336;28;20906;-72
2022/04/29 13:45:36;;;;;;;4.87;4.03;;;17.90;76.80;;;;;;5033032;28;20422;-72
2022/04/29 13:48:05;;;;;;;6.23;3.60;;;17.90;76.90;;;;;;5031353;28;20869;-72
2022/04/29 13:50:34;;;;;;;7.47;3.63;;;17.90;76.80;;;;;;5038247;28;20831;-70
2022/04/29 13:53:11;;;;;;;3.93;3.53;;;17.90;76.70;;;;;;5016348;28;20504;-69
2022/04/29 13:55:47;;;;;;;6.67;3.97;;;17.90;76.70;;;;;;5027834;28;20448;-72
2022/04/29 13:58:16;;;;;;;7.40;5.00;;;17.90;76.70;;;;;;5033566;28;21012;-72